createdAt,value
2018-11-22T12:16:07.247Z,17.77
2018-11-22T12:17:12.625Z,16.10
2018-11-22T12:18:18.141Z,19.50
2018-11-22T12:19:23.483Z,20.75
2018-11-22T12:20:28.757Z,22.00
2018-11-22T12:21:34.157Z,19.82
2018-11-22T12:22:40.421Z,20.82
2018-11-22T12:23:45.757Z,23.02
2018-11-22T12:24:51.110Z,19.50
2018-11-22T12:25:56.378Z,23.12
2018-11-22T12:27:01.835Z,19.87
2018-11-22T12:28:07.162Z,22.27
2018-11-22T12:29:13.307Z,20.37
2018-11-22T12:30:19.902Z,18.65
2018-11-22T12:31:25.240Z,18.10
2018-11-22T12:32:35.502Z,17.15
2018-11-22T12:33:41.108Z,19.42
2018-11-22T12:34:51.606Z,17.05
2018-11-22T12:36:02.208Z,15.93
2018-11-22T12:37:11.066Z,15.40
2018-11-22T12:38:21.914Z,15.70
2018-11-22T12:39:27.400Z,18.75
2018-11-22T12:40:32.907Z,16.17
2018-11-22T12:41:38.339Z,16.27
2018-11-22T12:42:43.858Z,15.90
2018-11-22T12:43:49.464Z,17.25
2018-11-22T12:44:59.073Z,15.63
2018-11-22T12:46:04.515Z,15.43
2018-11-22T12:47:09.905Z,15.72
2018-11-22T12:48:15.343Z,15.53
2018-11-22T12:49:21.114Z,16.82
2018-11-22T12:50:26.757Z,15.90
2018-11-22T12:51:32.287Z,16.25
2018-11-22T12:52:37.714Z,17.40
2018-11-22T12:53:43.024Z,15.63
2018-11-22T12:54:48.375Z,16.67
2018-11-22T12:55:53.736Z,15.35
2018-11-22T12:56:59.025Z,20.20
2018-11-22T12:58:04.474Z,16.82
2018-11-22T12:59:09.979Z,16.42
2018-11-22T13:00:16.917Z,15.65
2018-11-22T13:01:22.227Z,13.88
2018-11-22T13:02:27.759Z,17.75
2018-11-22T13:03:33.037Z,17.65
2018-11-22T13:04:38.390Z,18.80
2018-11-22T13:05:43.779Z,19.98
2018-11-22T13:06:49.146Z,14.68
2018-11-22T13:07:54.552Z,17.32
2018-11-22T13:09:00.038Z,18.35
2018-11-22T13:10:06.970Z,17.65
2018-11-22T13:11:12.564Z,17.10
2018-11-22T13:12:17.938Z,18.32
2018-11-22T13:13:23.340Z,16.40
2018-11-22T13:14:28.787Z,21.00
2018-11-22T13:15:34.170Z,19.73
2018-11-22T13:16:39.490Z,22.07
2018-11-22T13:17:44.888Z,20.60
2018-11-22T13:18:50.271Z,22.32
2018-11-22T13:19:56.653Z,22.50
2018-11-22T13:21:02.035Z,21.97
2018-11-22T13:22:08.144Z,18.95
2018-11-22T13:23:13.573Z,20.55
2018-11-22T13:24:20.950Z,18.92
2018-11-22T13:25:26.400Z,20.43
2018-11-22T13:26:31.851Z,19.17
2018-11-22T13:27:37.311Z,19.12
2018-11-22T13:28:42.652Z,21.62
2018-11-22T13:29:48.091Z,19.95
2018-11-22T13:30:53.559Z,21.30
2018-11-22T13:31:59.410Z,20.05
2018-11-22T13:33:04.893Z,22.10
2018-11-22T13:34:10.334Z,20.02
2018-11-22T13:35:16.434Z,20.68
2018-11-22T13:36:21.950Z,19.27
2018-11-22T13:37:27.226Z,18.75
2018-11-22T13:38:32.642Z,18.95
2018-11-22T13:39:38.022Z,22.37
2018-11-22T13:40:43.374Z,21.52
2018-11-22T13:41:48.842Z,23.18
2018-11-22T13:42:55.462Z,21.10
2018-11-22T13:44:00.863Z,19.60
2018-11-22T13:45:09.278Z,23.27
2018-11-22T13:46:14.655Z,20.95
2018-11-22T13:47:20.126Z,25.48
2018-11-22T13:48:25.939Z,22.85
2018-11-22T13:49:31.305Z,27.27
2018-11-22T13:50:41.889Z,22.30
2018-11-22T13:51:42.093Z,22.77
2018-11-22T13:52:48.969Z,21.85
2018-11-22T13:53:54.346Z,19.87
2018-11-22T13:54:59.623Z,20.08
2018-11-22T13:56:05.246Z,21.52
2018-11-22T13:57:10.632Z,22.87
2018-11-22T13:58:16.075Z,23.07
2018-11-22T13:59:21.529Z,19.87
2018-11-22T14:00:28.332Z,21.40
2018-11-22T14:01:33.767Z,24.72
2018-11-22T14:02:39.381Z,24.10
2018-11-22T14:03:44.919Z,19.65
2018-11-22T14:04:50.250Z,19.15
2018-11-22T14:05:56.530Z,21.57
2018-11-22T14:07:01.992Z,21.93
2018-11-22T14:08:08.997Z,20.82
2018-11-22T14:09:15.085Z,23.32
2018-11-22T14:10:22.108Z,24.87
2018-11-22T14:11:27.433Z,22.17
2018-11-22T14:12:32.747Z,25.02
2018-11-22T14:13:38.136Z,23.18
2018-11-22T14:14:43.639Z,23.12
2018-11-22T14:15:49.012Z,23.18
2018-11-22T14:16:54.321Z,22.13
2018-11-22T14:18:01.021Z,23.65
2018-11-22T14:19:06.455Z,21.70
2018-11-22T14:20:14.384Z,20.52
2018-11-22T14:21:19.674Z,22.42
2018-11-22T14:22:26.000Z,20.97
2018-11-22T14:23:31.306Z,23.75
2018-11-22T14:24:36.634Z,24.00
2018-11-22T14:25:45.063Z,23.02
2018-11-22T14:26:47.415Z,23.65
2018-11-22T14:27:52.793Z,23.30
2018-11-22T14:28:58.089Z,23.55
2018-11-22T14:30:03.686Z,22.40
2018-11-22T14:31:09.114Z,23.90
2018-11-22T14:32:14.487Z,22.70
2018-11-22T14:33:20.056Z,23.65
2018-11-22T14:34:25.403Z,22.80
2018-11-22T14:35:30.822Z,23.22
2018-11-22T14:36:36.651Z,22.27
2018-11-22T14:37:42.840Z,23.02
2018-11-22T14:38:48.260Z,22.30
2018-11-22T14:39:53.721Z,22.90
2018-11-22T14:40:59.151Z,23.18
2018-11-22T14:42:04.780Z,22.75
2018-11-22T14:43:10.310Z,24.00
2018-11-22T14:44:15.683Z,23.15
2018-11-22T14:45:21.182Z,20.72
2018-11-22T14:46:26.685Z,19.52
2018-11-22T14:47:32.168Z,22.37
2018-11-22T14:48:37.571Z,22.42
2018-11-22T14:49:42.841Z,22.95
2018-11-22T14:50:55.703Z,23.77
2018-11-22T14:52:01.342Z,26.10
2018-11-22T14:53:15.241Z,23.60
2018-11-22T14:54:20.854Z,20.10
2018-11-22T14:55:26.194Z,17.90
2018-11-22T14:56:31.490Z,18.20
2018-11-22T14:57:37.202Z,20.40
2018-11-22T14:58:42.600Z,20.65
2018-11-22T14:59:48.016Z,22.00
2018-11-22T15:00:53.466Z,26.10
2018-11-22T15:01:59.210Z,25.25
2018-11-22T15:03:04.997Z,24.45
2018-11-22T15:04:10.424Z,22.90
2018-11-22T15:05:16.670Z,26.37
2018-11-22T15:06:22.112Z,25.40
2018-11-22T15:07:28.800Z,25.65
2018-11-22T15:08:33.238Z,25.62
2018-11-22T15:09:38.646Z,25.82
2018-11-22T15:10:44.144Z,28.25
2018-11-22T15:11:49.559Z,24.50
2018-11-22T15:12:55.005Z,22.85
2018-11-22T15:14:00.385Z,25.45
2018-11-22T15:15:06.704Z,28.10
2018-11-22T15:16:12.039Z,25.88
2018-11-22T15:17:17.457Z,23.32
2018-11-22T15:18:22.820Z,25.72
2018-11-22T15:19:28.122Z,33.70
2018-11-22T15:20:33.530Z,32.35
2018-11-22T15:21:38.857Z,31.25
2018-11-22T15:22:44.928Z,32.58
2018-11-22T15:23:50.850Z,33.13
2018-11-22T15:24:56.215Z,36.58
2018-11-22T15:26:01.567Z,33.45
2018-11-22T15:27:07.011Z,34.08
2018-11-22T15:28:12.416Z,36.05
2018-11-22T15:29:17.886Z,26.52
2018-11-22T15:30:25.763Z,30.43
2018-11-22T15:31:31.196Z,27.65
2018-11-22T15:32:37.237Z,26.15
2018-11-22T15:33:42.576Z,25.60
2018-11-22T15:34:47.936Z,27.27
2018-11-22T15:35:53.911Z,30.52
2018-11-22T15:36:59.406Z,29.37
2018-11-22T15:38:04.855Z,28.70
2018-11-22T15:39:11.153Z,32.33
2018-11-22T15:40:19.024Z,29.65
2018-11-22T15:41:24.476Z,30.08
2018-11-22T15:42:29.978Z,30.77
2018-11-22T15:43:35.382Z,36.13
2018-11-22T15:44:41.672Z,34.00
2018-11-22T15:45:48.488Z,30.35
2018-11-22T15:46:54.935Z,30.20
2018-11-22T15:48:00.493Z,31.02
2018-11-22T15:49:06.190Z,27.93
2018-11-22T15:50:13.627Z,29.18
2018-11-22T15:51:18.931Z,31.80
2018-11-22T15:52:24.274Z,32.67
2018-11-22T15:53:30.219Z,29.95
2018-11-22T15:54:35.523Z,29.90
2018-11-22T15:55:40.970Z,30.82
2018-11-22T15:56:46.459Z,34.73
2018-11-22T15:57:53.220Z,34.60
2018-11-22T15:58:58.827Z,31.23
2018-11-22T16:00:04.348Z,31.75
2018-11-22T16:01:09.748Z,34.58
2018-11-22T16:02:15.187Z,26.85
2018-11-22T16:03:20.635Z,26.68
2018-11-22T16:04:26.100Z,27.77
2018-11-22T16:05:32.112Z,36.00
2018-11-22T16:06:37.507Z,26.70
2018-11-22T16:07:43.464Z,31.80
2018-11-22T16:08:48.872Z,30.23
2018-11-22T16:09:54.397Z,31.90
2018-11-22T16:10:59.980Z,31.00
2018-11-22T16:12:05.641Z,34.20
2018-11-22T16:13:12.292Z,34.98
2018-11-22T16:14:17.749Z,35.33
2018-11-22T16:15:34.077Z,32.63
2018-11-22T16:16:40.120Z,33.75
2018-11-22T16:17:46.762Z,37.88
2018-11-22T16:18:52.110Z,34.10
2018-11-22T16:19:58.039Z,36.20
2018-11-22T16:21:03.531Z,33.58
2018-11-22T16:22:08.827Z,31.97
2018-11-22T16:23:15.150Z,33.20
2018-11-22T16:24:20.445Z,34.80
2018-11-22T16:25:26.020Z,28.62
2018-11-22T16:26:31.362Z,32.10
2018-11-22T16:27:36.797Z,28.52
2018-11-22T16:28:42.216Z,31.17
2018-11-22T16:29:47.636Z,27.20
2018-11-22T16:30:53.024Z,27.07
2018-11-22T16:31:58.447Z,28.70
2018-11-22T16:33:04.587Z,32.03
2018-11-22T16:34:10.025Z,28.83
2018-11-22T16:35:16.677Z,29.75
2018-11-22T16:36:22.097Z,27.25
2018-11-22T16:37:27.643Z,25.82
2018-11-22T16:38:33.046Z,32.08
2018-11-22T16:39:38.471Z,30.82
2018-11-22T16:40:43.946Z,27.55
2018-11-22T16:41:49.372Z,26.60
2018-11-22T16:42:55.598Z,28.10
2018-11-22T16:44:03.325Z,27.05
2018-11-22T16:45:07.865Z,28.52
2018-11-22T16:46:13.430Z,26.27
2018-11-22T16:47:18.877Z,31.07
2018-11-22T16:48:24.291Z,28.50
2018-11-22T16:49:29.627Z,30.35
2018-11-22T16:50:36.401Z,26.77
2018-11-22T16:51:41.763Z,25.95
2018-11-22T16:52:47.120Z,27.20
2018-11-22T16:53:52.457Z,27.95
2018-11-22T16:54:57.738Z,34.75
2018-11-22T16:56:03.091Z,32.23
2018-11-22T16:57:08.455Z,62.55
2018-11-22T16:58:13.938Z,39.33
2018-11-22T16:59:19.352Z,36.28
2018-11-22T17:00:29.553Z,67.60
2018-11-22T17:01:34.795Z,47.23
2018-11-22T17:02:40.235Z,61.13
2018-11-22T17:03:45.741Z,66.50
2018-11-22T17:04:51.618Z,55.15
2018-11-22T17:05:56.728Z,50.35
2018-11-22T17:07:02.090Z,35.13
2018-11-22T17:08:08.452Z,31.73
2018-11-22T17:09:13.867Z,33.58
2018-11-22T17:10:20.665Z,36.63
2018-11-22T17:11:26.006Z,36.85
2018-11-22T17:12:31.395Z,32.25
2018-11-22T17:13:36.769Z,31.45
2018-11-22T17:14:42.647Z,32.30
2018-11-22T17:15:48.222Z,30.17
2018-11-22T17:16:53.686Z,27.10
2018-11-22T17:17:59.370Z,29.60
2018-11-22T17:19:04.809Z,29.30
2018-11-22T17:20:12.363Z,29.00
2018-11-22T17:21:17.757Z,25.88
2018-11-22T17:22:23.475Z,29.48
2018-11-22T17:23:28.897Z,29.02
2018-11-22T17:24:34.168Z,31.90
2018-11-22T17:25:39.546Z,27.42
2018-11-22T17:26:45.007Z,31.17
2018-11-22T17:27:51.736Z,27.80
2018-11-22T17:28:57.120Z,29.87
2018-11-22T17:30:05.089Z,32.25
2018-11-22T17:31:09.452Z,34.18
2018-11-22T17:32:14.867Z,32.23
2018-11-22T17:33:20.371Z,30.80
2018-11-22T17:34:25.808Z,33.05
2018-11-22T17:35:31.752Z,32.17
2018-11-22T17:36:37.122Z,29.18
2018-11-22T17:37:42.595Z,26.33
2018-11-22T17:38:48.040Z,30.00
2018-11-22T17:39:53.507Z,25.70
2018-11-22T17:40:58.910Z,26.40
2018-11-22T17:42:04.364Z,28.70
2018-11-22T17:43:09.992Z,27.00
2018-11-22T17:44:15.423Z,27.55
2018-11-22T17:45:25.312Z,26.02
2018-11-22T17:46:30.753Z,29.80
2018-11-22T17:47:36.303Z,27.58
2018-11-22T17:48:41.919Z,25.88
2018-11-22T17:49:47.319Z,27.87
2018-11-22T17:50:52.741Z,28.52
2018-11-22T17:51:58.186Z,27.10
2018-11-22T17:53:04.117Z,27.60
2018-11-22T17:54:09.568Z,27.50
2018-11-22T17:55:20.518Z,28.55
2018-11-22T17:56:25.906Z,30.30
2018-11-22T17:57:31.455Z,33.78
2018-11-22T17:58:37.202Z,34.18
2018-11-22T17:59:42.683Z,40.45
2018-11-22T18:00:52.735Z,34.88
2018-11-22T18:01:58.694Z,39.78
2018-11-22T18:03:05.074Z,32.83
2018-11-22T18:04:10.505Z,28.40
2018-11-22T18:05:16.108Z,28.60
2018-11-22T18:06:21.708Z,30.30
2018-11-22T18:07:27.169Z,34.53
2018-11-22T18:08:32.543Z,29.75
2018-11-22T18:09:37.903Z,33.78
2018-11-22T18:10:44.688Z,28.12
2018-11-22T18:11:50.131Z,29.48
2018-11-22T18:12:56.254Z,33.48
2018-11-22T18:14:01.747Z,39.83
2018-11-22T18:15:09.003Z,39.35
2018-11-22T18:16:14.486Z,38.65
2018-11-22T18:17:19.910Z,32.70
2018-11-22T18:18:25.758Z,30.97
2018-11-22T18:19:31.079Z,35.25
2018-11-22T18:20:36.488Z,29.45
2018-11-22T18:21:41.853Z,32.67
2018-11-22T18:22:48.302Z,32.93
2018-11-22T18:23:53.688Z,34.50
2018-11-22T18:24:58.983Z,33.48
2018-11-22T18:26:04.367Z,33.53
2018-11-22T18:27:09.709Z,28.42
2018-11-22T18:28:16.435Z,38.23
2018-11-22T18:29:21.932Z,44.85
2018-11-22T18:30:31.536Z,36.15
2018-11-22T18:31:36.863Z,38.98
2018-11-22T18:32:42.705Z,34.78
2018-11-22T18:33:48.234Z,34.05
2018-11-22T18:34:53.590Z,31.85
2018-11-22T18:35:58.974Z,35.58
2018-11-22T18:37:04.504Z,34.83
2018-11-22T18:38:09.951Z,34.43
2018-11-22T18:39:15.365Z,36.05
2018-11-22T18:40:23.847Z,32.88
2018-11-22T18:41:29.247Z,42.05
2018-11-22T18:42:34.665Z,36.83
2018-11-22T18:43:40.132Z,34.60
2018-11-22T18:44:46.278Z,36.35
2018-11-22T18:45:51.829Z,38.33
2018-11-22T18:46:57.183Z,43.75
2018-11-22T18:48:03.857Z,38.02
2018-11-22T18:49:09.349Z,37.98
2018-11-22T18:50:17.567Z,38.58
2018-11-22T18:51:22.938Z,34.88
2018-11-22T18:52:28.299Z,42.27
2018-11-22T18:53:34.378Z,44.20
2018-11-22T18:54:40.112Z,43.45
2018-11-22T18:55:45.643Z,40.03
2018-11-22T18:56:52.404Z,41.20
2018-11-22T18:57:57.788Z,38.28
2018-11-22T18:59:03.243Z,45.28
2018-11-22T19:00:13.467Z,49.27
2018-11-22T19:01:19.685Z,47.90
2018-11-22T19:02:25.129Z,44.80
2018-11-22T19:03:30.570Z,41.28
2018-11-22T19:04:36.034Z,50.35
2018-11-22T19:05:41.562Z,45.23
2018-11-22T19:06:47.744Z,46.75
2018-11-22T19:07:53.738Z,41.23
2018-11-22T19:08:59.223Z,44.70
2018-11-22T19:10:04.870Z,41.83
2018-11-22T19:11:10.378Z,40.43
2018-11-22T19:12:15.910Z,41.90
2018-11-22T19:13:21.352Z,42.55
2018-11-22T19:14:26.832Z,41.53
2018-11-22T19:15:33.697Z,40.40
2018-11-22T19:16:39.827Z,40.83
2018-11-22T19:17:49.212Z,35.55
2018-11-22T19:18:54.659Z,35.13
2018-11-22T19:20:00.056Z,43.80
2018-11-22T19:21:06.674Z,39.95
2018-11-22T19:22:12.546Z,36.23
2018-11-22T19:23:18.730Z,37.05
2018-11-22T19:24:25.025Z,39.53
2018-11-22T19:25:31.565Z,41.45
2018-11-22T19:26:37.005Z,42.83
2018-11-22T19:27:43.104Z,41.40
2018-11-22T19:28:48.790Z,43.73
2018-11-22T19:29:54.248Z,40.35
2018-11-22T19:30:59.718Z,41.68
2018-11-22T19:32:05.711Z,39.42
2018-11-22T19:33:12.773Z,38.55
2018-11-22T19:34:18.318Z,40.45
2018-11-22T19:35:26.241Z,40.67
2018-11-22T19:36:31.699Z,40.03
2018-11-22T19:37:37.254Z,42.53
2018-11-22T19:38:43.857Z,44.95
2018-11-22T19:39:50.248Z,42.53
2018-11-22T19:40:55.751Z,50.83
2018-11-22T19:42:01.113Z,41.68
2018-11-22T19:43:08.168Z,44.15
2018-11-22T19:44:14.245Z,43.70
2018-11-22T19:45:22.524Z,40.25
2018-11-22T19:46:27.950Z,43.38
2018-11-22T19:47:33.573Z,36.75
2018-11-22T19:48:39.131Z,40.63
2018-11-22T19:49:44.672Z,37.30
2018-11-22T19:50:50.090Z,40.17
2018-11-22T19:51:55.580Z,37.23
2018-11-22T19:53:02.423Z,38.95
2018-11-22T19:54:08.047Z,37.35
2018-11-22T19:55:15.910Z,37.42
2018-11-22T19:56:23.255Z,37.40
2018-11-22T19:57:28.815Z,36.77
2018-11-22T19:58:34.278Z,35.80
2018-11-22T19:59:39.816Z,37.83
2018-11-22T20:00:45.355Z,37.30
2018-11-22T20:01:50.757Z,40.23
2018-11-22T20:02:57.317Z,37.28
2018-11-22T20:04:02.855Z,43.10
2018-11-22T20:05:10.087Z,41.42
2018-11-22T20:06:15.739Z,39.88
2018-11-22T20:07:22.597Z,37.60
2018-11-22T20:08:28.324Z,41.90
2018-11-22T20:09:34.016Z,37.03
2018-11-22T20:10:41.650Z,42.33
2018-11-22T20:11:47.512Z,37.73
2018-11-22T20:12:55.294Z,38.30
2018-11-22T20:14:00.987Z,39.13
2018-11-22T20:15:07.304Z,40.17
2018-11-22T20:16:13.480Z,43.25
2018-11-22T20:17:19.415Z,36.88
2018-11-22T20:18:26.082Z,40.90
2018-11-22T20:19:31.929Z,43.45
2018-11-22T20:20:37.937Z,41.45
2018-11-22T20:21:43.655Z,44.70
2018-11-22T20:22:49.314Z,46.58
2018-11-22T20:23:57.485Z,42.67
2018-11-22T20:25:03.161Z,45.40
2018-11-22T20:26:09.365Z,40.28
2018-11-22T20:27:15.819Z,44.40
2018-11-22T20:28:21.636Z,43.30
2018-11-22T20:29:29.230Z,44.38
2018-11-22T20:30:36.467Z,43.45
2018-11-22T20:31:42.494Z,44.20
2018-11-22T20:32:48.263Z,46.37
2018-11-22T20:33:54.943Z,46.02
2018-11-22T20:35:00.372Z,41.42
2018-11-22T20:36:07.963Z,44.55
2018-11-22T20:37:14.312Z,38.17
2018-11-22T20:38:22.854Z,40.48
2018-11-22T20:39:28.516Z,43.15
2018-11-22T20:40:35.052Z,43.80
2018-11-22T20:41:43.016Z,40.73
2018-11-22T20:42:49.383Z,39.85
2018-11-22T20:43:55.937Z,40.05
2018-11-22T20:45:01.595Z,41.13
2018-11-22T20:46:08.147Z,41.48
2018-11-22T20:47:14.340Z,41.65
2018-11-22T20:48:21.311Z,44.15
2018-11-22T20:49:32.821Z,44.90
2018-11-22T20:50:42.468Z,41.92
2018-11-22T20:51:52.114Z,46.28
2018-11-22T20:52:59.057Z,44.27
2018-11-22T20:54:05.859Z,44.60
2018-11-22T20:55:15.234Z,42.75
2018-11-22T20:56:21.542Z,42.98
2018-11-22T20:57:27.194Z,39.90
2018-11-22T20:58:35.499Z,38.05
2018-11-22T20:59:42.724Z,38.50
2018-11-22T21:00:48.876Z,41.25
2018-11-22T21:01:55.261Z,41.85
2018-11-22T21:03:01.791Z,40.58
2018-11-22T21:04:08.125Z,41.42
2018-11-22T21:05:14.266Z,38.83
2018-11-22T21:06:20.234Z,42.93
2018-11-22T21:07:26.779Z,39.18
2018-11-22T21:08:33.763Z,41.08
2018-11-22T21:09:42.066Z,41.88
2018-11-22T21:10:48.729Z,40.85
2018-11-22T21:11:59.202Z,41.80
2018-11-22T21:13:04.721Z,46.50
2018-11-22T21:14:10.983Z,50.95
2018-11-22T21:15:24.085Z,53.85
2018-11-22T21:16:33.524Z,46.98
2018-11-22T21:17:39.992Z,52.60
2018-11-22T21:18:46.107Z,51.85
2018-11-22T21:19:52.569Z,46.50
2018-11-22T21:21:02.565Z,44.33
2018-11-22T21:22:11.225Z,47.38
2018-11-22T21:23:17.263Z,37.10
2018-11-22T21:24:23.139Z,37.83
2018-11-22T21:25:28.819Z,39.08
2018-11-22T21:26:34.685Z,36.35
2018-11-22T21:27:40.738Z,35.58
2018-11-22T21:28:52.210Z,35.60
2018-11-22T21:29:57.591Z,32.38
2018-11-22T21:31:04.232Z,36.95
2018-11-22T21:32:10.297Z,32.88
2018-11-22T21:33:19.198Z,35.98
2018-11-22T21:34:25.827Z,36.42
2018-11-22T21:35:31.714Z,36.45
2018-11-22T21:36:37.195Z,36.10
2018-11-22T21:37:43.662Z,41.58
2018-11-22T21:38:51.899Z,35.98
2018-11-22T21:39:57.314Z,39.18
2018-11-22T21:41:04.125Z,37.73
2018-11-22T21:42:09.732Z,39.40
2018-11-22T21:43:16.107Z,38.67
2018-11-22T21:44:22.539Z,35.23
2018-11-22T21:45:30.212Z,39.75
2018-11-22T21:46:36.003Z,42.58
2018-11-22T21:47:41.938Z,41.90
2018-11-22T21:48:47.434Z,40.95
2018-11-22T21:49:53.314Z,43.20
2018-11-22T21:50:59.996Z,59.35
2018-11-22T21:52:05.640Z,77.58
2018-11-22T21:53:12.238Z,90.80
2018-11-22T21:54:17.933Z,96.70
2018-11-22T21:55:26.177Z,87.85
2018-11-22T21:56:31.929Z,86.25
2018-11-22T21:57:39.486Z,73.33
2018-11-22T21:58:45.144Z,77.12
2018-11-22T21:59:50.783Z,80.77
2018-11-22T22:00:57.681Z,89.25
2018-11-22T22:02:03.687Z,100.72
2018-11-22T22:03:12.018Z,85.47
2018-11-22T22:04:17.634Z,66.05
2018-11-22T22:05:24.322Z,51.58
2018-11-22T22:06:30.176Z,40.55
2018-11-22T22:07:37.241Z,41.15
2018-11-22T22:08:43.472Z,43.52
2018-11-22T22:09:49.816Z,47.83
2018-11-22T22:10:55.657Z,41.53
2018-11-22T22:12:02.210Z,44.85
2018-11-22T22:13:08.061Z,43.10
2018-11-22T22:14:13.681Z,44.80
2018-11-22T22:15:23.025Z,42.60
2018-11-22T22:16:28.602Z,47.78
2018-11-22T22:17:34.179Z,45.95
2018-11-22T22:18:39.879Z,48.08
2018-11-22T22:19:45.437Z,52.08
2018-11-22T22:20:50.827Z,44.55
2018-11-22T22:21:57.993Z,43.02
2018-11-22T22:23:04.736Z,46.18
2018-11-22T22:24:12.046Z,48.85
2018-11-22T22:25:19.019Z,40.67
2018-11-22T22:26:24.461Z,46.88
2018-11-22T22:27:30.063Z,45.17
2018-11-22T22:28:35.462Z,43.95
2018-11-22T22:29:41.172Z,45.15
2018-11-22T22:30:47.207Z,47.78
2018-11-22T22:31:52.650Z,45.85
2018-11-22T22:33:00.719Z,45.08
2018-11-22T22:34:07.343Z,44.40
2018-11-22T22:35:16.183Z,43.10
2018-11-22T22:36:22.411Z,47.90
2018-11-22T22:37:28.529Z,44.65
2018-11-22T22:38:34.398Z,44.67
2018-11-22T22:39:40.485Z,45.12
2018-11-22T22:40:46.039Z,44.65
2018-11-22T22:41:51.665Z,42.23
2018-11-22T22:42:58.547Z,42.93
2018-11-22T22:44:04.015Z,42.73
2018-11-22T22:45:09.530Z,45.20
2018-11-22T22:46:15.082Z,47.43
2018-11-22T22:47:21.211Z,47.62
2018-11-22T22:48:26.618Z,46.77
2018-11-22T22:49:32.145Z,51.48
2018-11-22T22:50:37.517Z,45.75
2018-11-22T22:51:43.330Z,48.52
2018-11-22T22:52:50.743Z,52.00
2018-11-22T22:53:56.261Z,46.73
2018-11-22T22:55:02.668Z,46.05
2018-11-22T22:56:08.434Z,48.70
2018-11-22T22:57:14.064Z,47.65
2018-11-22T22:58:19.477Z,50.60
2018-11-22T22:59:25.008Z,48.45
2018-11-22T23:00:39.612Z,44.73
2018-11-22T23:01:45.201Z,43.80
2018-11-22T23:02:53.577Z,47.13
2018-11-22T23:03:59.275Z,44.23
2018-11-22T23:05:04.810Z,45.73
2018-11-22T23:06:10.154Z,46.13
2018-11-22T23:07:15.886Z,49.48
2018-11-22T23:08:22.054Z,46.98
2018-11-22T23:09:27.484Z,47.45
2018-11-22T23:10:33.044Z,49.45
2018-11-22T23:11:42.624Z,48.73
2018-11-22T23:12:48.084Z,45.15
2018-11-22T23:13:53.535Z,42.88
2018-11-22T23:14:59.190Z,45.80
2018-11-22T23:16:04.761Z,49.42
2018-11-22T23:17:10.253Z,45.43
2018-11-22T23:18:16.505Z,49.45
2018-11-22T23:19:21.985Z,49.60
2018-11-22T23:20:28.879Z,45.80
2018-11-22T23:21:34.294Z,48.52
2018-11-22T23:22:40.206Z,48.87
2018-11-22T23:23:45.709Z,48.15
2018-11-22T23:24:51.821Z,48.00
2018-11-22T23:25:57.288Z,48.85
2018-11-22T23:27:02.875Z,53.28
2018-11-22T23:28:09.181Z,48.85
2018-11-22T23:29:14.676Z,49.23
2018-11-22T23:30:25.865Z,51.60
2018-11-22T23:31:31.162Z,50.92
2018-11-22T23:32:36.705Z,48.42
2018-11-22T23:33:42.066Z,51.60
2018-11-22T23:34:50.274Z,45.92
2018-11-22T23:35:55.859Z,57.35
2018-11-22T23:37:01.220Z,52.53
2018-11-22T23:38:06.629Z,58.30
2018-11-22T23:39:12.058Z,54.95
2018-11-22T23:40:19.017Z,48.70
2018-11-22T23:41:24.512Z,56.08
